Time;durP1;ratioP1;P1;durP2;ratioP2;P2;SDS_P1;SDS_P2;PMS_P1;PMS_P2;Temp;Humidity;BMP_temperature;BMP_pressure;BME280_temperature;BME280_humidity;BME280_pressure;Samples;Min_cycle;Max_cycle;Signal;HPM_P1;HPM_P2
2021/10/25 00:01:16;;;;;;;1.92;0.90;;;;;;;;;;5057236;28;20064;-77
2021/10/25 00:03:43;;;;;;;2.08;0.80;;;;;;;;;;5059079;28;20449;-77
2021/10/25 00:06:09;;;;;;;2.88;1.05;;;;;;;;;;5065329;28;20044;-77
2021/10/25 00:08:36;;;;;;;2.60;0.93;;;;;;;;;;5063136;28;20574;-77
2021/10/25 00:11:02;;;;;;;2.53;0.90;;;;;;;;;;5061152;28;20056;-77
2021/10/25 00:13:28;;;;;;;1.55;0.73;;;;;;;;;;5060293;28;20071;-77
2021/10/25 00:15:55;;;;;;;1.95;0.98;;;;;;;;;;5062948;28;20059;-77
2021/10/25 00:18:21;;;;;;;2.20;1.15;;;;;;;;;;5067479;28;20060;-76
2021/10/25 00:20:47;;;;;;;2.85;0.90;;;;;;;;;;5060529;28;20044;-76
2021/10/25 00:23:14;;;;;;;1.75;0.70;;;;;;;;;;5065854;28;20063;-76
2021/10/25 00:25:41;;;;;;;2.38;0.95;;;;;;;;;;5060633;28;20203;-76
2021/10/25 00:28:08;;;;;;;2.10;0.70;;;;;;;;;;5065043;28;20063;-77
2021/10/25 00:30:34;;;;;;;2.08;1.08;;;;;;;;;;5067567;28;20040;-77
2021/10/25 00:33:00;;;;;;;2.25;0.95;;;;;;;;;;5066547;28;20056;-78
2021/10/25 00:35:27;;;;;;;2.17;0.90;;;;;;;;;;5065068;28;20060;-77
2021/10/25 00:37:53;;;;;;;2.08;0.85;;;;;;;;;;5070892;28;20064;-78
2021/10/25 00:40:20;;;;;;;2.55;0.85;;;;;;;;;;5058105;28;20425;-77
2021/10/25 00:42:46;;;;;;;1.25;0.80;;;;;;;;;;5053859;28;20068;-78
2021/10/25 00:45:13;;;;;;;1.92;1.00;;;;;;;;;;5064489;28;20441;-77
2021/10/25 00:47:39;;;;;;;1.48;0.80;;;;;;;;;;5065256;28;20063;-76
2021/10/25 00:50:06;;;;;;;7.28;1.25;;;;;;;;;;5064456;28;20056;-76
2021/10/25 00:52:32;;;;;;;1.52;0.90;;;;;;;;;;5062715;28;20056;-76
2021/10/25 00:54:59;;;;;;;4.10;1.23;;;;;;;;;;5068313;28;20049;-77
2021/10/25 00:57:25;;;;;;;1.90;0.80;;;;;;;;;;5062065;28;20057;-78
2021/10/25 00:59:52;;;;;;;2.28;0.90;;;;;;;;;;5060596;28;20071;-77
2021/10/25 01:02:18;;;;;;;2.42;1.05;;;;;;;;;;5063805;28;20060;-78
2021/10/25 01:04:45;;;;;;;1.52;0.82;;;;;;;;;;5061605;28;20056;-79
2021/10/25 01:07:12;;;;;;;3.58;0.95;;;;;;;;;;5064435;28;20056;-78
2021/10/25 01:09:39;;;;;;;2.97;1.23;;;;;;;;;;5065310;28;20067;-77
2021/10/25 01:12:05;;;;;;;1.95;0.93;;;;;;;;;;5068945;28;20555;-77
2021/10/25 01:14:32;;;;;;;2.10;0.90;;;;;;;;;;5059292;28;20125;-78
2021/10/25 01:16:58;;;;;;;1.50;0.88;;;;;;;;;;5064785;28;20068;-78
2021/10/25 01:19:24;;;;;;;2.55;0.90;;;;;;;;;;5062170;28;20068;-78
2021/10/25 01:21:51;;;;;;;1.90;0.75;;;;;;;;;;5064778;28;20056;-78
2021/10/25 01:24:17;;;;;;;2.97;1.00;;;;;;;;;;5065229;28;20067;-79
2021/10/25 01:26:44;;;;;;;1.65;0.73;;;;;;;;;;5061174;28;20064;-79
2021/10/25 01:29:11;;;;;;;2.20;1.33;;;;;;;;;;5065965;28;20106;-78
2021/10/25 01:31:37;;;;;;;3.20;0.90;;;;;;;;;;5066239;28;20064;-78
2021/10/25 01:34:03;;;;;;;1.30;0.80;;;;;;;;;;5067926;28;20075;-78
2021/10/25 01:36:30;;;;;;;1.40;0.82;;;;;;;;;;5069226;28;20441;-78
2021/10/25 01:38:56;;;;;;;2.28;0.85;;;;;;;;;;5061341;28;20069;-76
2021/10/25 01:41:23;;;;;;;1.85;1.00;;;;;;;;;;5058037;28;20068;-77
2021/10/25 01:43:49;;;;;;;4.15;1.35;;;;;;;;;;5057548;28;20060;-77
2021/10/25 01:46:15;;;;;;;2.08;0.93;;;;;;;;;;5063134;28;20049;-76
2021/10/25 01:48:42;;;;;;;2.58;0.93;;;;;;;;;;5060420;28;20500;-76
2021/10/25 01:51:09;;;;;;;1.33;0.77;;;;;;;;;;5067742;28;20071;-76
2021/10/25 01:53:37;;;;;;;1.55;0.73;;;;;;;;;;5060513;28;20060;-76
2021/10/25 01:56:05;;;;;;;1.77;0.82;;;;;;;;;;5069950;28;20056;-79
2021/10/25 01:58:31;;;;;;;3.30;0.80;;;;;;;;;;5066583;28;20083;-76
2021/10/25 02:00:57;;;;;;;1.63;0.80;;;;;;;;;;5058220;28;20765;-77
2021/10/25 02:03:24;;;;;;;3.03;1.00;;;;;;;;;;5064498;28;20060;-77
2021/10/25 02:05:50;;;;;;;2.30;1.02;;;;;;;;;;5063673;28;20080;-77
2021/10/25 02:08:17;;;;;;;1.65;0.98;;;;;;;;;;5065216;28;20472;-76
2021/10/25 02:10:44;;;;;;;2.92;1.00;;;;;;;;;;5069663;28;20067;-78
2021/10/25 02:13:15;;;;;;;1.73;1.00;;;;;;;;;;5063830;28;20166;-78
2021/10/25 02:15:42;;;;;;;;;;;;;;;;;;5063974;28;20045;-78
2021/10/25 02:18:08;;;;;;;3.42;1.05;;;;;;;;;;5064167;28;19947;-77
2021/10/25 02:20:34;;;;;;;2.22;0.98;;;;;;;;;;5058747;28;20048;-77
2021/10/25 02:23:01;;;;;;;1.67;0.80;;;;;;;;;;5057587;28;20118;-78
2021/10/25 02:25:28;;;;;;;1.60;0.90;;;;;;;;;;5061783;28;20539;-76
2021/10/25 02:27:54;;;;;;;3.28;1.00;;;;;;;;;;5057524;28;20145;-76
2021/10/25 02:30:21;;;;;;;3.38;1.20;;;;;;;;;;5065158;28;20056;-79
2021/10/25 02:32:48;;;;;;;2.20;1.00;;;;;;;;;;5065482;28;20063;-77
2021/10/25 02:35:14;;;;;;;2.80;1.08;;;;;;;;;;5062788;28;20087;-78
2021/10/25 02:37:40;;;;;;;1.45;0.82;;;;;;;;;;5063527;28;20088;-78
2021/10/25 02:40:07;;;;;;;1.42;0.80;;;;;;;;;;5055967;28;20493;-78
2021/10/25 02:42:33;;;;;;;2.08;1.00;;;;;;;;;;5063792;28;20131;-78
2021/10/25 02:45:00;;;;;;;1.73;0.80;;;;;;;;;;5058159;28;20064;-78
2021/10/25 02:47:26;;;;;;;2.75;1.00;;;;;;;;;;5059608;28;20059;-78
2021/10/25 02:49:53;;;;;;;1.90;0.90;;;;;;;;;;5063097;28;20130;-77
2021/10/25 02:52:19;;;;;;;4.25;1.08;;;;;;;;;;5043588;28;20059;-77
2021/10/25 02:54:45;;;;;;;1.13;0.80;;;;;;;;;;5065343;28;20032;-78
2021/10/25 02:57:14;;;;;;;2.25;0.95;;;;;;;;;;5064155;28;20056;-78
2021/10/25 02:59:41;;;;;;;1.85;0.90;;;;;;;;;;5053616;28;20056;-77
2021/10/25 03:02:07;;;;;;;5.25;1.00;;;;;;;;;;5061313;28;20129;-77
2021/10/25 03:04:33;;;;;;;2.70;0.88;;;;;;;;;;5062438;28;20073;-77
2021/10/25 03:07:00;;;;;;;2.35;0.90;;;;;;;;;;5064602;28;20052;-77
2021/10/25 03:09:26;;;;;;;4.63;1.08;;;;;;;;;;5065478;28;20064;-77
2021/10/25 03:11:53;;;;;;;3.95;1.00;;;;;;;;;;5066517;28;20068;-77
2021/10/25 03:14:19;;;;;;;2.95;1.23;;;;;;;;;;5061297;28;20059;-77
2021/10/25 03:16:46;;;;;;;1.92;0.90;;;;;;;;;;5058500;28;20118;-76
2021/10/25 03:19:12;;;;;;;1.73;0.80;;;;;;;;;;5060979;28;20715;-77
2021/10/25 03:21:38;;;;;;;2.20;0.85;;;;;;;;;;5060220;28;20123;-77
2021/10/25 03:24:05;;;;;;;1.85;0.90;;;;;;;;;;5058601;28;20064;-77
2021/10/25 03:26:31;;;;;;;1.90;0.80;;;;;;;;;;5061166;28;20068;-78
2021/10/25 03:28:58;;;;;;;1.75;0.90;;;;;;;;;;5057104;28;20064;-77
2021/10/25 03:31:25;;;;;;;2.17;0.82;;;;;;;;;;5064301;28;20056;-78
2021/10/25 03:33:51;;;;;;;2.17;0.90;;;;;;;;;;5062785;28;20503;-78
2021/10/25 03:36:19;;;;;;;2.85;1.10;;;;;;;;;;5059254;28;20071;-77
2021/10/25 03:38:46;;;;;;;3.03;0.95;;;;;;;;;;5057337;28;20503;-78
2021/10/25 03:41:20;;;;;;;3.47;0.90;;;;;;;;;;5065912;28;20127;-78
2021/10/25 03:43:52;;;;;;;2.22;1.00;;;;;;;;;;5060733;28;20146;-78
2021/10/25 03:46:29;;;;;;;2.25;0.90;;;;;;;;;;5064226;28;20509;-78
2021/10/25 03:49:02;;;;;;;0.93;0.70;;;;;;;;;;5055605;28;20124;-77
2021/10/25 03:51:29;;;;;;;1.70;0.90;;;;;;;;;;5060162;28;20470;-77
2021/10/25 03:57:09;;;;;;;1.67;0.80;;;;;;;;;;5053537;28;20071;-77
2021/10/25 04:26:33;;;;;;;1.92;0.80;;;;;;;;;;5058201;28;20278;-79
2021/10/25 04:28:59;;;;;;;1.25;0.70;;;;;;;;;;5082946;28;20613;-79
2021/10/25 04:31:26;;;;;;;2.38;1.13;;;;;;;;;;5062036;28;20041;-79
2021/10/25 04:33:52;;;;;;;2.00;0.98;;;;;;;;;;5065853;28;20072;-78
2021/10/25 04:36:19;;;;;;;1.98;0.95;;;;;;;;;;5061806;28;20067;-77
2021/10/25 04:38:45;;;;;;;3.10;1.15;;;;;;;;;;5060102;28;20060;-77
2021/10/25 04:41:11;;;;;;;3.83;1.05;;;;;;;;;;5062019;28;20488;-77
2021/10/25 04:43:40;;;;;;;2.08;0.88;;;;;;;;;;5058921;28;20087;-77
2021/10/25 04:46:06;;;;;;;2.10;1.10;;;;;;;;;;5054771;28;20045;-77
2021/10/25 04:48:32;;;;;;;3.08;1.10;;;;;;;;;;5061680;28;20063;-78
2021/10/25 04:50:59;;;;;;;2.58;1.00;;;;;;;;;;5063491;28;20060;-78
2021/10/25 04:53:26;;;;;;;5.68;1.38;;;;;;;;;;5065416;28;20064;-78
2021/10/25 04:55:52;;;;;;;2.25;1.00;;;;;;;;;;5062912;28;20052;-77
2021/10/25 04:58:18;;;;;;;2.65;1.20;;;;;;;;;;5069164;28;20064;-77
2021/10/25 05:00:45;;;;;;;1.98;0.70;;;;;;;;;;5064650;28;20052;-77
2021/10/25 05:03:11;;;;;;;1.67;1.10;;;;;;;;;;5060358;28;20064;-77
2021/10/25 05:05:37;;;;;;;2.47;1.10;;;;;;;;;;5076957;28;20715;-78
2021/10/25 05:08:04;;;;;;;2.00;1.02;;;;;;;;;;5063748;28;20055;-78
2021/10/25 05:10:30;;;;;;;2.78;1.10;;;;;;;;;;5063211;28;20060;-78
2021/10/25 05:12:57;;;;;;;3.40;1.10;;;;;;;;;;5067457;28;20048;-78
2021/10/25 05:15:23;;;;;;;2.50;1.13;;;;;;;;;;5067765;28;20550;-78
2021/10/25 05:17:49;;;;;;;2.15;1.10;;;;;;;;;;5063629;28;20075;-77
2021/10/25 05:20:16;;;;;;;4.53;1.20;;;;;;;;;;5063160;28;20049;-77
2021/10/25 05:22:42;;;;;;;2.70;1.10;;;;;;;;;;5059419;28;20056;-78
2021/10/25 05:25:09;;;;;;;3.17;1.40;;;;;;;;;;5067388;28;20036;-78
2021/10/25 05:27:35;;;;;;;1.77;0.88;;;;;;;;;;5057027;28;20464;-78
2021/10/25 05:30:03;;;;;;;2.42;1.00;;;;;;;;;;5056745;28;21077;-77
2021/10/25 05:32:29;;;;;;;2.03;1.10;;;;;;;;;;5060480;28;20056;-77
2021/10/25 05:34:57;;;;;;;1.85;0.88;;;;;;;;;;5067975;28;20484;-77
2021/10/25 05:37:24;;;;;;;1.95;1.00;;;;;;;;;;5060839;28;20064;-77
2021/10/25 05:39:51;;;;;;;2.00;1.02;;;;;;;;;;5066329;28;20048;-77
2021/10/25 05:42:17;;;;;;;1.73;0.98;;;;;;;;;;5065146;28;20056;-78
2021/10/25 05:44:43;;;;;;;1.98;1.08;;;;;;;;;;5055723;28;20060;-79
2021/10/25 05:47:10;;;;;;;4.68;1.00;;;;;;;;;;5060099;28;20966;-77
2021/10/25 05:49:36;;;;;;;1.60;0.90;;;;;;;;;;5058683;28;20064;-77
2021/10/25 05:52:03;;;;;;;2.10;1.00;;;;;;;;;;5064462;28;20551;-76
2021/10/25 05:54:30;;;;;;;2.20;0.95;;;;;;;;;;5060852;28;20496;-77
2021/10/25 05:56:56;;;;;;;1.92;0.95;;;;;;;;;;5066109;28;20060;-78
2021/10/25 05:59:25;;;;;;;1.70;1.00;;;;;;;;;;5057609;28;20129;-77
2021/10/25 06:02:29;;;;;;;3.05;1.25;;;;;;;;;;5061827;28;20073;-78
2021/10/25 06:04:44;;;;;;;1.73;1.05;;;;;;;;;;5063151;28;20044;-78
2021/10/25 06:07:11;;;;;;;2.60;0.95;;;;;;;;;;5065425;28;20145;-78
2021/10/25 06:09:37;;;;;;;2.28;1.10;;;;;;;;;;5066558;28;20056;-78
2021/10/25 06:12:09;;;;;;;2.28;1.10;;;;;;;;;;5065428;28;20135;-78
2021/10/25 06:14:39;;;;;;;3.45;1.50;;;;;;;;;;5065997;28;20053;-77
2021/10/25 06:17:39;;;;;;;2.35;0.90;;;;;;;;;;5057085;28;20095;-78
2021/10/25 06:19:52;;;;;;;4.20;0.95;;;;;;;;;;5061610;28;20531;-78
2021/10/25 06:22:19;;;;;;;1.88;0.80;;;;;;;;;;5066233;28;20056;-77
2021/10/25 06:24:49;;;;;;;2.10;0.88;;;;;;;;;;5066599;28;20056;-77
2021/10/25 06:27:16;;;;;;;2.90;1.15;;;;;;;;;;5066632;28;20075;-79
2021/10/25 06:29:42;;;;;;;3.03;1.27;;;;;;;;;;5065431;28;20060;-78
2021/10/25 06:32:09;;;;;;;1.65;0.80;;;;;;;;;;5065799;28;20614;-78
2021/10/25 06:34:43;;;;;;;2.42;1.17;;;;;;;;;;5063953;28;20516;-77
2021/10/25 06:37:09;;;;;;;3.42;1.30;;;;;;;;;;5059576;28;21416;-77
2021/10/25 06:39:40;;;;;;;2.88;1.00;;;;;;;;;;5062586;28;20064;-79
2021/10/25 06:42:07;;;;;;;1.83;1.02;;;;;;;;;;5066437;28;20492;-82
2021/10/25 06:45:21;;;;;;;1.88;1.08;;;;;;;;;;5066466;28;20118;-83
2021/10/25 06:47:22;;;;;;;2.10;1.13;;;;;;;;;;5051112;28;20261;-83
2021/10/25 06:49:49;;;;;;;2.25;1.00;;;;;;;;;;5057744;28;20068;-83
2021/10/25 06:52:15;;;;;;;1.45;0.80;;;;;;;;;;5060745;28;20112;-83
2021/10/25 06:54:42;;;;;;;3.63;1.30;;;;;;;;;;5059805;28;20057;-82
2021/10/25 06:57:09;;;;;;;2.45;1.20;;;;;;;;;;5061142;28;20064;-83
2021/10/25 06:59:35;;;;;;;2.30;1.15;;;;;;;;;;5062010;28;20510;-83
2021/10/25 07:02:02;;;;;;;2.03;1.23;;;;;;;;;;5056891;28;20350;-83
2021/10/25 07:04:29;;;;;;;2.25;1.00;;;;;;;;;;5059291;28;20064;-83
2021/10/25 07:06:56;;;;;;;2.38;0.90;;;;;;;;;;5072681;28;20440;-84
2021/10/25 07:09:23;;;;;;;1.85;0.90;;;;;;;;;;5061964;28;20574;-83
2021/10/25 07:11:49;;;;;;;1.80;0.90;;;;;;;;;;5060114;28;20079;-83
2021/10/25 07:14:23;;;;;;;2.38;1.00;;;;;;;;;;5073175;28;20052;-83
2021/10/25 07:16:54;;;;;;;2.50;1.00;;;;;;;;;;5064701;28;20063;-83
2021/10/25 08:00:46;;;;;;;2.53;0.90;;;;;;;;;;5059617;28;21265;-82
2021/10/25 08:10:40;;;;;;;3.80;1.13;;;;;;;;;;5061072;28;20064;-79
2021/10/25 08:13:15;;;;;;;1.75;0.88;;;;;;;;;;5058518;28;20401;-80
2021/10/25 08:15:45;;;;;;;2.05;1.15;;;;;;;;;;5063305;28;20075;-80
2021/10/25 08:18:35;;;;;;;1.77;0.95;;;;;;;;;;5076130;28;21886;-79
2021/10/25 08:21:02;;;;;;;1.83;1.02;;;;;;;;;;5057065;28;20083;-80
2021/10/25 08:23:29;;;;;;;2.20;1.10;;;;;;;;;;5059462;28;20064;-80
2021/10/25 08:25:55;;;;;;;1.70;0.95;;;;;;;;;;5063204;28;20787;-79
2021/10/25 08:28:22;;;;;;;1.85;0.98;;;;;;;;;;5063914;28;20060;-79
2021/10/25 08:30:52;;;;;;;2.13;1.20;;;;;;;;;;5058119;28;20036;-80
2021/10/25 08:33:45;;;;;;;2.13;1.00;;;;;;;;;;5064438;28;20069;-82
2021/10/25 08:36:16;;;;;;;2.60;1.08;;;;;;;;;;5058886;28;20071;-80
2021/10/25 08:41:28;;;;;;;2.95;1.02;;;;;;;;;;5062258;28;20082;-79
2021/10/25 08:43:56;;;;;;;1.92;1.00;;;;;;;;;;5070069;28;20056;-80
2021/10/25 08:46:25;;;;;;;1.65;0.80;;;;;;;;;;5070509;28;20068;-80
2021/10/25 08:48:53;;;;;;;5.55;1.25;;;;;;;;;;5069358;28;20063;-81
2021/10/25 08:51:20;;;;;;;1.85;0.93;;;;;;;;;;5064548;28;20068;-81
2021/10/25 08:53:47;;;;;;;2.30;1.10;;;;;;;;;;5061084;28;20056;-81
2021/10/25 08:56:17;;;;;;;2.08;1.20;;;;;;;;;;5065896;28;20060;-81
2021/10/25 08:58:45;;;;;;;2.28;1.00;;;;;;;;;;5059043;28;20557;-82
2021/10/25 09:01:22;;;;;;;1.85;1.10;;;;;;;;;;5066208;28;20062;-80
2021/10/25 09:04:01;;;;;;;1.88;1.13;;;;;;;;;;5066748;28;20073;-80
2021/10/25 09:06:27;;;;;;;1.35;0.82;;;;;;;;;;5064941;28;20088;-80
2021/10/25 09:08:58;;;;;;;2.05;1.20;;;;;;;;;;5066017;28;20615;-80
2021/10/25 09:11:25;;;;;;;1.77;1.10;;;;;;;;;;5067633;28;20581;-80
2021/10/25 09:13:51;;;;;;;2.42;1.20;;;;;;;;;;5072253;28;20064;-80
2021/10/25 09:16:18;;;;;;;2.55;1.20;;;;;;;;;;5072433;28;20053;-80
2021/10/25 09:18:44;;;;;;;2.50;1.00;;;;;;;;;;5074107;28;20056;-80
2021/10/25 09:21:13;;;;;;;2.42;1.10;;;;;;;;;;5070592;28;20477;-79
2021/10/25 09:23:40;;;;;;;3.60;1.30;;;;;;;;;;5073219;28;20028;-80
2021/10/25 09:26:11;;;;;;;1.70;1.00;;;;;;;;;;5064439;28;20065;-80
2021/10/25 09:28:40;;;;;;;2.72;1.02;;;;;;;;;;5068459;28;20037;-79
2021/10/25 09:31:10;;;;;;;2.63;1.35;;;;;;;;;;5065406;28;20094;-80
2021/10/25 09:33:38;;;;;;;3.05;1.00;;;;;;;;;;5063157;28;20111;-80
2021/10/25 09:36:10;;;;;;;1.63;0.93;;;;;;;;;;5063545;28;20044;-80
2021/10/25 09:38:58;;;;;;;2.10;1.10;;;;;;;;;;5063878;28;20114;-80
2021/10/25 09:49:33;;;;;;;3.13;1.10;;;;;;;;;;5058536;28;20080;-81
2021/10/25 09:52:00;;;;;;;1.80;0.93;;;;;;;;;;5067650;28;20048;-81
2021/10/25 09:54:32;;;;;;;2.55;1.13;;;;;;;;;;5062720;28;20061;-83
2021/10/25 09:57:14;;;;;;;2.10;1.00;;;;;;;;;;5065474;28;20047;-81
2021/10/25 09:59:50;;;;;;;1.23;0.85;;;;;;;;;;5059012;28;20056;-82
2021/10/25 10:02:18;;;;;;;2.30;1.00;;;;;;;;;;5068325;28;20617;-81
2021/10/25 10:04:45;;;;;;;2.42;1.00;;;;;;;;;;5057086;28;20106;-81
2021/10/25 10:07:15;;;;;;;1.83;0.85;;;;;;;;;;5069599;28;20052;-80
2021/10/25 10:09:42;;;;;;;1.10;0.80;;;;;;;;;;5063498;28;20160;-80
2021/10/25 10:12:09;;;;;;;1.55;1.00;;;;;;;;;;5072393;28;20064;-80
2021/10/25 10:14:35;;;;;;;3.33;1.23;;;;;;;;;;5058619;28;20056;-80
2021/10/25 10:17:02;;;;;;;3.38;1.30;;;;;;;;;;5066257;28;20110;-80
2021/10/25 10:19:31;;;;;;;3.08;1.20;;;;;;;;;;5069706;28;20056;-80
2021/10/25 10:21:58;;;;;;;2.03;1.00;;;;;;;;;;5064450;28;20064;-80
2021/10/25 10:24:30;;;;;;;2.15;1.15;;;;;;;;;;5062523;28;20173;-80
2021/10/25 10:27:01;;;;;;;1.85;1.00;;;;;;;;;;5065201;28;20074;-82
2021/10/25 10:29:35;;;;;;;1.80;1.10;;;;;;;;;;5064605;28;20064;-80
2021/10/25 10:32:03;;;;;;;2.42;1.40;;;;;;;;;;5068995;28;20497;-80
2021/10/25 10:34:44;;;;;;;1.38;0.90;;;;;;;;;;5057273;28;20067;-80
2021/10/25 10:37:21;;;;;;;4.95;1.25;;;;;;;;;;5066945;28;20029;-80
2021/10/25 10:40:04;;;;;;;3.58;1.20;;;;;;;;;;5064671;28;20052;-80
2021/10/25 10:42:31;;;;;;;2.17;1.15;;;;;;;;;;5068037;28;20138;-80
2021/10/25 10:45:03;;;;;;;2.15;1.13;;;;;;;;;;5068559;28;20083;-80
2021/10/25 10:47:37;;;;;;;2.08;1.13;;;;;;;;;;5060871;28;20064;-81
2021/10/25 10:50:04;;;;;;;2.85;1.30;;;;;;;;;;5062848;28;20041;-82
2021/10/25 10:55:03;;;;;;;2.20;1.30;;;;;;;;;;5070280;28;20113;-81
2021/10/25 11:00:35;;;;;;;4.05;1.42;;;;;;;;;;5053474;28;20033;-81
2021/10/25 11:03:04;;;;;;;3.53;1.40;;;;;;;;;;5061376;28;20052;-82
2021/10/25 11:05:41;;;;;;;2.35;1.35;;;;;;;;;;5062929;28;20563;-82
2021/10/25 11:08:09;;;;;;;4.22;1.15;;;;;;;;;;5065606;28;20510;-81
2021/10/25 11:10:38;;;;;;;1.77;1.17;;;;;;;;;;5065873;28;20557;-82
2021/10/25 11:13:13;;;;;;;2.50;1.42;;;;;;;;;;5066733;28;20044;-82
2021/10/25 11:15:52;;;;;;;4.10;1.20;;;;;;;;;;5068937;28;20114;-82
2021/10/25 11:18:22;;;;;;;2.47;1.23;;;;;;;;;;5062767;28;20181;-81
2021/10/25 11:20:53;;;;;;;3.30;1.52;;;;;;;;;;5064326;28;20640;-81
2021/10/25 11:23:19;;;;;;;2.85;1.17;;;;;;;;;;5066695;28;20048;-81
2021/10/25 11:25:46;;;;;;;2.38;1.30;;;;;;;;;;5063393;28;20146;-81
2021/10/25 11:28:16;;;;;;;2.40;1.45;;;;;;;;;;5060575;28;20068;-81
2021/10/25 11:30:43;;;;;;;2.63;1.30;;;;;;;;;;5066705;28;20056;-81
2021/10/25 11:33:09;;;;;;;2.53;1.30;;;;;;;;;;5065753;28;20110;-81
2021/10/25 11:35:44;;;;;;;2.03;1.20;;;;;;;;;;5060117;28;20137;-81
2021/10/25 11:38:10;;;;;;;2.58;1.30;;;;;;;;;;5065311;28;20032;-81
2021/10/25 11:40:38;;;;;;;1.92;1.20;;;;;;;;;;5061074;28;20056;-81
2021/10/25 11:43:04;;;;;;;2.22;1.17;;;;;;;;;;5066091;28;21642;-81
2021/10/25 11:45:33;;;;;;;2.47;1.30;;;;;;;;;;5066937;28;20064;-81
2021/10/25 11:47:59;;;;;;;3.13;1.23;;;;;;;;;;5059567;28;20033;-81
2021/10/25 11:50:27;;;;;;;2.00;1.08;;;;;;;;;;5066215;28;20056;-81
2021/10/25 11:52:59;;;;;;;3.00;1.42;;;;;;;;;;5060330;28;20056;-80
2021/10/25 11:55:26;;;;;;;2.35;1.20;;;;;;;;;;5060828;28;20067;-80
2021/10/25 11:57:55;;;;;;;1.85;1.15;;;;;;;;;;5060927;28;20907;-81
2021/10/25 12:00:23;;;;;;;2.47;1.30;;;;;;;;;;5068388;28;20056;-81
2021/10/25 12:02:49;;;;;;;2.65;1.40;;;;;;;;;;5063039;28;20029;-82
2021/10/25 12:05:25;;;;;;;2.00;1.30;;;;;;;;;;5061635;28;20061;-81
2021/10/25 12:07:53;;;;;;;2.38;1.23;;;;;;;;;;5060084;28;20576;-81
2021/10/25 12:10:21;;;;;;;1.85;1.25;;;;;;;;;;5066184;28;20450;-82
2021/10/25 12:12:51;;;;;;;1.98;1.02;;;;;;;;;;5058707;28;20052;-82
2021/10/25 12:15:18;;;;;;;2.30;1.20;;;;;;;;;;5056594;28;20056;-81
2021/10/25 12:17:46;;;;;;;3.13;1.30;;;;;;;;;;5062887;28;20040;-82
2021/10/25 12:20:21;;;;;;;2.72;1.30;;;;;;;;;;5064401;28;20028;-83
2021/10/25 12:22:56;;;;;;;3.22;1.20;;;;;;;;;;5056327;28;20064;-83
2021/10/25 12:25:22;;;;;;;3.00;1.50;;;;;;;;;;5060117;28;20051;-81
2021/10/25 12:27:49;;;;;;;2.35;1.25;;;;;;;;;;5065462;28;20103;-79
2021/10/25 12:30:16;;;;;;;2.10;1.35;;;;;;;;;;5063898;28;20561;-80
2021/10/25 12:32:56;;;;;;;2.78;1.27;;;;;;;;;;5056863;28;20138;-80
2021/10/25 12:35:55;;;;;;;2.40;1.25;;;;;;;;;;5054117;28;20052;-80
2021/10/25 12:38:22;;;;;;;4.07;1.30;;;;;;;;;;5017523;28;20029;-80
2021/10/25 12:40:53;;;;;;;2.08;1.40;;;;;;;;;;5065160;28;20056;-80
2021/10/25 12:43:20;;;;;;;2.60;1.27;;;;;;;;;;5061985;28;20045;-80
2021/10/25 12:45:56;;;;;;;1.83;1.20;;;;;;;;;;5060083;28;20062;-80
2021/10/25 12:48:23;;;;;;;2.13;1.13;;;;;;;;;;5055907;28;20061;-81
2021/10/25 12:50:50;;;;;;;2.08;1.25;;;;;;;;;;5062794;28;20036;-81
2021/10/25 12:53:19;;;;;;;2.20;1.40;;;;;;;;;;5063634;28;21012;-81
2021/10/25 12:55:57;;;;;;;2.67;1.60;;;;;;;;;;5060627;28;20048;-81
2021/10/25 12:58:24;;;;;;;2.75;1.40;;;;;;;;;;5056922;28;20043;-80
2021/10/25 13:00:52;;;;;;;2.55;1.23;;;;;;;;;;5054339;28;20118;-81
2021/10/25 13:03:18;;;;;;;2.70;1.30;;;;;;;;;;5058421;28;20439;-82
2021/10/25 13:05:54;;;;;;;3.20;1.40;;;;;;;;;;5057752;28;20087;-81
2021/10/25 13:08:24;;;;;;;3.88;1.48;;;;;;;;;;5059983;28;20110;-81
2021/10/25 13:10:50;;;;;;;2.90;1.30;;;;;;;;;;5058582;28;20060;-81
2021/10/25 13:13:17;;;;;;;1.98;1.23;;;;;;;;;;5056297;28;20057;-80
2021/10/25 13:15:44;;;;;;;2.53;1.35;;;;;;;;;;5056610;28;20134;-80
2021/10/25 13:18:11;;;;;;;3.50;1.33;;;;;;;;;;5058437;28;20036;-79
2021/10/25 13:20:42;;;;;;;1.40;1.10;;;;;;;;;;5061624;28;20750;-80
2021/10/25 13:23:10;;;;;;;3.97;1.50;;;;;;;;;;5055367;28;20066;-80
2021/10/25 13:25:37;;;;;;;2.70;1.33;;;;;;;;;;5064401;28;20118;-80
2021/10/25 13:28:05;;;;;;;2.42;1.20;;;;;;;;;;5056693;28;20067;-80
2021/10/25 13:30:32;;;;;;;3.13;1.30;;;;;;;;;;5062429;28;20044;-80
2021/10/25 13:32:59;;;;;;;2.30;1.40;;;;;;;;;;5068795;28;20094;-79
2021/10/25 13:35:25;;;;;;;3.80;1.30;;;;;;;;;;5059114;28;20469;-80
2021/10/25 13:37:54;;;;;;;2.30;1.30;;;;;;;;;;5065481;28;20048;-80
2021/10/25 13:40:22;;;;;;;2.72;1.50;;;;;;;;;;5058802;28;20107;-80
2021/10/25 13:42:49;;;;;;;1.73;1.08;;;;;;;;;;5064223;28;20139;-80
2021/10/25 13:45:15;;;;;;;2.67;1.30;;;;;;;;;;5064451;28;20056;-80
2021/10/25 13:47:42;;;;;;;4.10;1.60;;;;;;;;;;5062851;28;20033;-81
2021/10/25 13:50:09;;;;;;;2.35;1.40;;;;;;;;;;5066611;28;20044;-81
2021/10/25 13:52:36;;;;;;;2.05;1.27;;;;;;;;;;5064603;28;20389;-80
2021/10/25 13:55:05;;;;;;;4.03;1.40;;;;;;;;;;5059358;28;20066;-80
2021/10/25 13:57:36;;;;;;;2.78;1.23;;;;;;;;;;5065987;28;20044;-80
2021/10/25 14:00:04;;;;;;;2.90;1.35;;;;;;;;;;5060587;28;20094;-81
2021/10/25 14:02:30;;;;;;;3.03;1.42;;;;;;;;;;5062459;28;20057;-81
2021/10/25 14:04:58;;;;;;;2.92;1.42;;;;;;;;;;5062403;28;20069;-81
2021/10/25 14:07:33;;;;;;;2.72;1.50;;;;;;;;;;5063998;28;20106;-81
2021/10/25 14:10:07;;;;;;;2.20;1.30;;;;;;;;;;5064799;28;20052;-81
2021/10/25 14:12:35;;;;;;;3.50;1.70;;;;;;;;;;5059313;28;20496;-81
2021/10/25 14:17:52;;;;;;;1.73;1.40;;;;;;;;;;5030745;28;20052;-81
2021/10/25 14:20:23;;;;;;;2.70;1.48;;;;;;;;;;5067208;28;20068;-81
2021/10/25 14:22:50;;;;;;;2.10;1.52;;;;;;;;;;5064817;28;20057;-80
2021/10/25 14:25:17;;;;;;;1.98;1.20;;;;;;;;;;5070692;28;20075;-80
2021/10/25 14:27:43;;;;;;;2.60;1.40;;;;;;;;;;5064782;28;20063;-81
2021/10/25 14:30:10;;;;;;;2.67;1.40;;;;;;;;;;5064839;28;20052;-81
2021/10/25 14:32:36;;;;;;;2.70;1.60;;;;;;;;;;5062371;28;20112;-81
2021/10/25 14:35:04;;;;;;;3.67;1.83;;;;;;;;;;5066203;28;20056;-81
2021/10/25 14:37:34;;;;;;;2.30;1.40;;;;;;;;;;5068575;28;20124;-81
2021/10/25 14:40:06;;;;;;;3.03;1.57;;;;;;;;;;5069872;28;20048;-81
2021/10/25 14:42:34;;;;;;;3.25;1.50;;;;;;;;;;5068704;28;20081;-81
2021/10/25 14:58:37;;;;;;;2.63;1.40;;;;;;;;;;5000974;28;21273;-86
2021/10/25 15:01:04;;;;;;;1.90;1.20;;;;;;;;;;5059835;28;21418;-84
2021/10/25 15:03:31;;;;;;;3.08;1.67;;;;;;;;;;5075854;28;20044;-83
2021/10/25 15:05:58;;;;;;;2.95;1.50;;;;;;;;;;5071662;28;20036;-85
2021/10/25 15:08:25;;;;;;;2.45;1.40;;;;;;;;;;5065012;28;20105;-85
2021/10/25 15:10:52;;;;;;;3.00;1.70;;;;;;;;;;5072307;28;20490;-84
2021/10/25 15:13:18;;;;;;;2.72;1.52;;;;;;;;;;5069880;28;20090;-84
2021/10/25 15:15:45;;;;;;;2.80;1.40;;;;;;;;;;5073868;28;20604;-82
2021/10/25 15:18:12;;;;;;;2.58;1.70;;;;;;;;;;5068321;28;20075;-83
2021/10/25 15:20:38;;;;;;;3.45;2.00;;;;;;;;;;5068220;28;20472;-84
2021/10/25 15:23:05;;;;;;;4.72;2.08;;;;;;;;;;5064899;28;22154;-83
2021/10/25 15:25:35;;;;;;;3.45;2.08;;;;;;;;;;5073707;28;20507;-84
2021/10/25 15:28:02;;;;;;;2.45;1.70;;;;;;;;;;5061538;28;20101;-83
2021/10/25 15:30:28;;;;;;;3.17;1.85;;;;;;;;;;5070678;28;20711;-82
2021/10/25 15:32:54;;;;;;;2.83;1.90;;;;;;;;;;5069083;28;20060;-83
2021/10/25 15:35:21;;;;;;;4.30;1.70;;;;;;;;;;5069293;28;20044;-82
2021/10/25 15:37:47;;;;;;;2.00;1.52;;;;;;;;;;5067565;28;20059;-84
2021/10/25 15:40:14;;;;;;;4.57;2.03;;;;;;;;;;5075716;28;20068;-84
2021/10/25 15:42:40;;;;;;;2.47;1.45;;;;;;;;;;5071102;28;20040;-84
2021/10/25 15:45:08;;;;;;;4.13;1.70;;;;;;;;;;5069839;28;20058;-84
2021/10/25 15:47:34;;;;;;;2.53;1.60;;;;;;;;;;5071179;28;20056;-84
2021/10/25 15:50:01;;;;;;;3.72;1.50;;;;;;;;;;5064335;28;20059;-83
2021/10/25 15:52:28;;;;;;;2.70;1.60;;;;;;;;;;5068514;28;20102;-84
2021/10/25 15:54:55;;;;;;;2.80;1.60;;;;;;;;;;5075501;28;20033;-84
2021/10/25 15:57:22;;;;;;;2.75;1.80;;;;;;;;;;5066430;28;20035;-83
2021/10/25 15:59:49;;;;;;;3.10;1.75;;;;;;;;;;5067856;28;20045;-83
2021/10/25 16:02:16;;;;;;;4.35;1.73;;;;;;;;;;5069176;28;20025;-82
2021/10/25 16:04:43;;;;;;;3.47;2.05;;;;;;;;;;5060917;28;20059;-82
2021/10/25 16:07:11;;;;;;;3.00;1.63;;;;;;;;;;5073774;28;20122;-83
2021/10/25 16:09:38;;;;;;;2.72;1.70;;;;;;;;;;5072816;28;20056;-83
2021/10/25 16:12:04;;;;;;;3.55;1.63;;;;;;;;;;5067035;28;21337;-83
2021/10/25 16:14:31;;;;;;;2.75;1.52;;;;;;;;;;5074527;28;20063;-82
2021/10/25 16:17:01;;;;;;;3.05;1.65;;;;;;;;;;5066027;28;20064;-83
2021/10/25 16:19:27;;;;;;;2.90;1.55;;;;;;;;;;5052385;28;20094;-83
2021/10/25 16:21:54;;;;;;;2.70;1.60;;;;;;;;;;5069932;28;20068;-83
2021/10/25 16:24:24;;;;;;;2.42;1.70;;;;;;;;;;5063320;28;20055;-83
2021/10/25 16:26:50;;;;;;;4.00;1.83;;;;;;;;;;5053442;28;20566;-85
2021/10/25 16:29:17;;;;;;;3.22;1.60;;;;;;;;;;5065324;28;20068;-83
2021/10/25 16:31:44;;;;;;;2.85;1.83;;;;;;;;;;5059124;28;20083;-84
2021/10/25 16:34:10;;;;;;;2.40;1.80;;;;;;;;;;5065239;28;20071;-83
2021/10/25 16:36:37;;;;;;;2.30;1.75;;;;;;;;;;5067110;28;20573;-84
2021/10/25 16:39:04;;;;;;;2.95;1.70;;;;;;;;;;5076317;28;20113;-85
2021/10/25 16:41:31;;;;;;;3.25;1.67;;;;;;;;;;5072218;28;20067;-84